Estación de Algarrobo Bajo INIA
Ultimos registro cada 15 minutos 43
| N° | Estación | Fecha / Hora | Temperatura | Humedad | Lluvia | Velocidad | Dirección | Radiación | Presion |
| 43 | Algarrobo Bajo INIA | 04-05-2026 10:30 | 15,9 | 55,1 | 0 | 0,6 | 174 | 453 | 0 |
| 42 | Algarrobo Bajo INIA | 04-05-2026 10:15 | 14,8 | 58 | 0 | 0,7 | 148 | 420 | 0 |
| 41 | Algarrobo Bajo INIA | 04-05-2026 10:00 | 13,7 | 59 | 0 | 0,5 | 158 | 384 | 0 |
| 40 | Algarrobo Bajo INIA | 04-05-2026 09:45 | 12,7 | 60,9 | 0 | 0,4 | 170 | 346 | 0 |
| 39 | Algarrobo Bajo INIA | 04-05-2026 09:30 | 11,3 | 61,4 | 0 | 0,4 | 192 | 307 | 0 |
| 38 | Algarrobo Bajo INIA | 04-05-2026 09:15 | 9,8 | 62,7 | 0 | 0,5 | 164 | 265 | 0 |
| 37 | Algarrobo Bajo INIA | 04-05-2026 09:00 | 8,7 | 66,6 | 0 | 0,8 | 197 | 223 | 0 |
| 36 | Algarrobo Bajo INIA | 04-05-2026 08:45 | 8,1 | 69,9 | 0 | 0,6 | 216 | 181 | 0 |
| 35 | Algarrobo Bajo INIA | 04-05-2026 08:30 | 8,1 | 73,4 | 0 | 0,2 | 226 | 139 | 0 |
| 34 | Algarrobo Bajo INIA | 04-05-2026 08:15 | 6,9 | 78,7 | 0 | 0 | 0 | 97 | 0 |
| 33 | Algarrobo Bajo INIA | 04-05-2026 08:00 | 4,8 | 85,2 | 0 | 0 | 42 | 51 | 0 |
| 32 | Algarrobo Bajo INIA | 04-05-2026 07:45 | 4,1 | 86,3 | 0 | 0 | 0 | 17 | 0 |
| 31 | Algarrobo Bajo INIA | 04-05-2026 07:30 | 3,9 | 85,5 | 0 | 0 | 0 | 5 | 0 |
| 30 | Algarrobo Bajo INIA | 04-05-2026 07:15 | 4 | 83,9 | 0 | 0 | 77 | 1 | 0 |
| 29 | Algarrobo Bajo INIA | 04-05-2026 07:00 | 5 | 81,7 | 0 | 0 | 68 | 0 | 0 |
| 28 | Algarrobo Bajo INIA | 04-05-2026 06:45 | 4,6 | 83,4 | 0 | 0 | 0 | 0 | 0 |
| 27 | Algarrobo Bajo INIA | 04-05-2026 06:30 | 4,6 | 82,7 | 0 | 0,1 | 57 | 0 | 0 |
| 26 | Algarrobo Bajo INIA | 04-05-2026 06:15 | 4,8 | 82,6 | 0 | 0 | 0 | 0 | 0 |
| 25 | Algarrobo Bajo INIA | 04-05-2026 06:00 | 5 | 81,9 | 0 | 0 | 0 | 0 | 0 |
| 24 | Algarrobo Bajo INIA | 04-05-2026 05:45 | 5,5 | 80,4 | 0 | 0,1 | 46 | 0 | 0 |
| 23 | Algarrobo Bajo INIA | 04-05-2026 05:30 | 5,7 | 80,9 | 0 | 0,2 | 44 | 0 | 0 |
| 22 | Algarrobo Bajo INIA | 04-05-2026 05:15 | 5,9 | 80,3 | 0 | 0,2 | 44 | 0 | 0 |
| 21 | Algarrobo Bajo INIA | 04-05-2026 05:00 | 6,3 | 81,3 | 0 | 0,3 | 5 | 0 | 0 |
| 20 | Algarrobo Bajo INIA | 04-05-2026 04:45 | 6,2 | 80,9 | 0 | 0,1 | 18 | 0 | 0 |
| 19 | Algarrobo Bajo INIA | 04-05-2026 04:30 | 6,3 | 80,7 | 0 | 0 | 0 | 0 | 0 |
| 18 | Algarrobo Bajo INIA | 04-05-2026 04:15 | 6,5 | 81,1 | 0 | 0 | 49 | 0 | 0 |
| 17 | Algarrobo Bajo INIA | 04-05-2026 04:00 | 6,1 | 82,6 | 0 | 0 | 0 | 0 | 0 |
| 16 | Algarrobo Bajo INIA | 04-05-2026 03:45 | 6,4 | 82 | 0 | 0,2 | 28 | 0 | 0 |
| 15 | Algarrobo Bajo INIA | 04-05-2026 03:30 | 6,5 | 84,1 | 0 | 0 | 0 | 0 | 0 |
| 14 | Algarrobo Bajo INIA | 04-05-2026 03:15 | 6,5 | 83,1 | 0 | 0 | 12 | 0 | 0 |
| 13 | Algarrobo Bajo INIA | 04-05-2026 03:00 | 7 | 82,8 | 0 | 0,1 | 7 | 0 | 0 |
| 12 | Algarrobo Bajo INIA | 04-05-2026 02:45 | 6,7 | 84,5 | 0 | 0,3 | 36 | 0 | 0 |
| 11 | Algarrobo Bajo INIA | 04-05-2026 02:30 | 7 | 84,1 | 0 | 0 | 0 | 0 | 0 |
| 10 | Algarrobo Bajo INIA | 04-05-2026 02:15 | 7,1 | 84,5 | 0 | 0 | 0 | 0 | 0 |
| 9 | Algarrobo Bajo INIA | 04-05-2026 02:00 | 7,6 | 84,7 | 0 | 0 | 0 | 0 | 0 |
| 8 | Algarrobo Bajo INIA | 04-05-2026 01:45 | 7,6 | 86,1 | 0 | 0,2 | 258 | 0 | 0 |
| 7 | Algarrobo Bajo INIA | 04-05-2026 01:30 | 7,5 | 87,5 | 0 | 0,6 | 262 | 0 | 0 |
| 6 | Algarrobo Bajo INIA | 04-05-2026 01:15 | 7,5 | 87,5 | 0 | 0,2 | 273 | 0 | 0 |
| 5 | Algarrobo Bajo INIA | 04-05-2026 01:00 | 7,5 | 86,4 | 0 | 0 | 0 | 0 | 0 |
| 4 | Algarrobo Bajo INIA | 04-05-2026 00:45 | 7,6 | 86,3 | 0 | 0 | 326 | 0 | 0 |
| 3 | Algarrobo Bajo INIA | 04-05-2026 00:30 | 7,6 | 85,7 | 0 | 0 | 0 | 0 | 0 |
| 2 | Algarrobo Bajo INIA | 04-05-2026 00:15 | 8,3 | 84,6 | 0 | 0,2 | 283 | 0 | 0 |
| 1 | Algarrobo Bajo INIA | 04-05-2026 00:00 | 8,6 | 84,2 | 0 | 0,2 | 37 | 0 | 0 |